Terminal Aerodrome Forecast
Issued by NWS

Home | Current Version | Previous Version | Text Only | Print | Product List | Glossary On
Versions: 1 2 3 4 5 6 7 8 9 10 11 12 13
000
FTUS45 KRIW 300800 AAA
TAFRKS
TAF AMD
KRKS 300806Z 3008/3106 05015KT P6SM -SHRA SCT008 BKN014
      TEMPO 3009/3013 5SM RA BR BKN008
     FM301530 06015G25KT P6SM VCSH SCT025 OVC040
     FM301900 08015G25KT P6SM VCSH SCT050 BKN100
     FM310100 07010KT P6SM SCT100=

USA.gov is the U.S. government's official web portal to all federal, state and local government web resources and services.